createdAt,value
2019-03-28T00:01:35.737Z,103487.59
2019-03-28T00:04:04.079Z,103484.19
2019-03-28T00:06:31.941Z,103484.19
2019-03-28T00:08:59.916Z,103480.61
2019-03-28T00:11:27.809Z,103475.52
2019-03-28T00:13:55.664Z,103466.73
2019-03-28T00:16:23.450Z,103470.34
2019-03-28T00:18:51.259Z,103470.27
2019-03-28T00:21:19.097Z,103468.67
2019-03-28T00:24:01.211Z,103467.77
2019-03-28T00:26:30.477Z,103473.70
2019-03-28T00:28:58.497Z,103479.09
2019-03-28T00:31:26.330Z,103485.00
2019-03-28T00:33:54.173Z,103477.23
2019-03-28T00:36:22.010Z,103473.28
2019-03-28T00:38:50.172Z,103479.41
2019-03-28T00:41:18.257Z,103467.45
2019-03-28T00:43:46.072Z,103467.45
2019-03-28T00:46:13.890Z,103473.20
2019-03-28T00:48:41.844Z,103472.98
2019-03-28T00:51:09.684Z,103472.98
2019-03-28T00:53:37.534Z,103468.44
2019-03-28T00:56:05.381Z,103472.98
2019-03-28T00:58:33.246Z,103478.02
2019-03-28T01:01:01.067Z,103481.42
2019-03-28T01:03:28.967Z,103470.90
2019-03-28T01:05:56.778Z,103470.90
2019-03-28T01:08:24.638Z,103469.27
2019-03-28T01:10:52.462Z,103472.94
2019-03-28T01:13:20.306Z,103470.19
2019-03-28T01:15:48.156Z,103458.36
2019-03-28T01:18:16.001Z,103464.64
2019-03-28T01:20:43.780Z,103463.77
2019-03-28T01:23:11.637Z,103463.77
2019-03-28T01:25:39.445Z,103459.82
2019-03-28T01:28:07.216Z,103467.45
2019-03-28T01:30:35.085Z,103464.31
2019-03-28T01:33:02.877Z,103472.34
2019-03-28T01:35:30.673Z,103469.26
2019-03-28T01:37:58.527Z,103472.44
2019-03-28T01:40:26.401Z,103475.61
2019-03-28T01:42:54.238Z,103471.48
2019-03-28T01:45:22.039Z,103476.61
2019-03-28T01:47:49.822Z,103461.91
2019-03-28T01:50:17.728Z,103473.70
2019-03-28T01:52:45.526Z,103480.01
2019-03-28T01:55:13.350Z,103476.88
2019-03-28T01:57:41.193Z,103470.03
2019-03-28T02:00:10.093Z,103466.50
2019-03-28T02:02:37.905Z,103469.91
2019-03-28T02:05:06.332Z,103457.80
2019-03-28T02:07:34.095Z,103457.80
2019-03-28T02:10:01.931Z,103466.45
2019-03-28T02:12:29.776Z,103466.27
2019-03-28T02:14:57.678Z,103461.36
2019-03-28T02:17:25.558Z,103468.16
2019-03-28T02:19:53.381Z,103465.08
2019-03-28T02:22:21.180Z,103468.75
2019-03-28T02:24:49.051Z,103473.33
2019-03-28T02:27:23.979Z,103471.78
2019-03-28T02:29:46.669Z,103471.78
2019-03-28T02:32:14.569Z,103470.97
2019-03-28T02:34:42.513Z,103463.13
2019-03-28T02:37:10.456Z,103478.59
2019-03-28T02:39:38.297Z,103467.28
2019-03-28T02:42:06.169Z,103471.73
2019-03-28T02:44:34.072Z,103463.02
2019-03-28T02:47:01.905Z,103470.36
2019-03-28T02:49:29.867Z,103470.58
2019-03-28T02:51:57.710Z,103464.63
2019-03-28T02:54:25.555Z,103464.23
2019-03-28T02:56:53.552Z,103464.23
2019-03-28T02:59:21.380Z,103464.48
2019-03-28T03:01:49.177Z,103459.72
2019-03-28T03:04:17.120Z,103461.59
2019-03-28T03:06:44.996Z,103457.42
2019-03-28T03:09:12.857Z,103462.00
2019-03-28T03:11:42.715Z,103460.63
2019-03-28T03:14:11.881Z,103460.63
2019-03-28T03:16:40.061Z,103458.53
2019-03-28T03:19:07.901Z,103460.06
2019-03-28T03:21:36.070Z,103464.64
2019-03-28T03:24:04.152Z,103459.16
2019-03-28T03:26:32.043Z,103465.74
2019-03-28T03:28:59.886Z,103458.75
2019-03-28T03:31:27.705Z,103458.75
2019-03-28T03:33:55.588Z,103462.58
2019-03-28T03:36:23.458Z,103468.09
2019-03-28T03:38:51.298Z,103458.62
2019-03-28T03:41:19.169Z,103462.52
2019-03-28T03:43:46.960Z,103468.59
2019-03-28T03:46:14.781Z,103468.09
2019-03-28T03:48:42.744Z,103471.23
2019-03-28T03:51:10.626Z,103468.59
2019-03-28T03:53:38.461Z,103464.92
2019-03-28T03:56:06.432Z,103463.52
2019-03-28T03:58:34.245Z,103455.98
2019-03-28T04:01:02.121Z,103455.98
2019-03-28T04:03:30.034Z,103462.58
2019-03-28T04:05:57.903Z,103480.91
2019-03-28T04:08:26.995Z,103458.02
2019-03-28T04:10:55.220Z,103466.69
2019-03-28T04:13:23.016Z,103466.69
2019-03-28T04:15:51.031Z,103473.27
2019-03-28T04:18:22.086Z,103474.03
2019-03-28T04:20:48.684Z,103477.70
2019-03-28T04:23:16.553Z,103490.05
2019-03-28T04:25:44.367Z,103489.06
2019-03-28T04:28:12.769Z,103489.06
2019-03-28T04:30:40.871Z,103496.18
2019-03-28T04:33:08.734Z,103506.94
2019-03-28T04:35:36.559Z,103505.71
2019-03-28T04:38:04.373Z,103505.71
2019-03-28T04:40:32.247Z,103517.41
2019-03-28T04:43:00.114Z,103517.41
2019-03-28T04:45:28.035Z,103510.75
2019-03-28T04:47:55.984Z,103512.98
2019-03-28T04:50:23.800Z,103507.44
2019-03-28T04:52:53.002Z,103506.02
2019-03-28T04:55:21.390Z,103509.56
2019-03-28T04:57:49.367Z,103507.16
2019-03-28T05:00:17.532Z,103507.16
2019-03-28T05:02:46.116Z,103518.59
2019-03-28T05:05:14.241Z,103512.14
2019-03-28T05:07:42.402Z,103513.46
2019-03-28T05:10:11.207Z,103517.69
2019-03-28T05:12:39.062Z,103516.14
2019-03-28T05:15:08.759Z,103518.66
2019-03-28T05:17:36.756Z,103499.66
2019-03-28T05:20:05.501Z,103499.66
2019-03-28T05:22:33.335Z,103507.27
2019-03-28T05:25:01.199Z,103510.49
2019-03-28T05:27:29.063Z,103514.44
2019-03-28T05:29:56.864Z,103500.70
2019-03-28T05:32:24.684Z,103518.89
2019-03-28T05:34:52.547Z,103519.62
2019-03-28T05:37:20.360Z,103526.15
2019-03-28T05:39:48.234Z,103522.33
2019-03-28T05:42:16.187Z,103525.30
2019-03-28T05:44:44.031Z,103548.52
2019-03-28T05:47:11.839Z,103548.52
2019-03-28T05:49:39.710Z,103550.41
2019-03-28T05:52:07.569Z,103547.05
2019-03-28T05:54:35.448Z,103547.05
2019-03-28T05:57:03.309Z,103535.22
2019-03-28T05:59:31.152Z,103557.63
2019-03-28T06:01:59.004Z,103565.94
2019-03-28T06:04:26.870Z,103541.34
2019-03-28T06:06:54.788Z,103539.52
2019-03-28T06:09:22.640Z,103559.41
2019-03-28T06:11:52.855Z,103568.06
2019-03-28T06:14:20.278Z,103563.58
2019-03-28T06:16:48.110Z,103560.04
2019-03-28T06:19:16.002Z,103562.98
2019-03-28T06:21:43.858Z,103560.54
2019-03-28T06:24:11.761Z,103572.47
2019-03-28T06:26:39.603Z,103578.78
2019-03-28T06:29:08.697Z,103575.37
2019-03-28T06:31:36.888Z,103564.38
2019-03-28T06:34:04.772Z,103564.38
2019-03-28T06:36:32.612Z,103558.61
2019-03-28T06:39:00.472Z,103569.28
2019-03-28T06:41:28.406Z,103582.08
2019-03-28T06:43:56.188Z,103580.67
2019-03-28T06:46:24.077Z,103568.28
2019-03-28T06:48:51.962Z,103576.97
2019-03-28T06:51:19.772Z,103571.11
2019-03-28T06:53:47.670Z,103580.27
2019-03-28T06:56:15.469Z,103583.45
2019-03-28T06:58:43.334Z,103583.45
2019-03-28T07:01:11.241Z,103588.39
2019-03-28T07:03:39.050Z,103589.11
2019-03-28T07:06:06.914Z,103589.11
2019-03-28T07:08:34.775Z,103591.05
2019-03-28T07:11:02.791Z,103588.24
2019-03-28T07:13:31.212Z,103591.64
2019-03-28T07:15:59.068Z,103592.95
2019-03-28T07:18:26.904Z,103592.64
2019-03-28T07:20:54.768Z,103593.95
2019-03-28T07:23:22.671Z,103593.95
2019-03-28T07:25:50.487Z,103600.48
2019-03-28T07:28:18.317Z,103606.11
2019-03-28T07:30:46.201Z,103605.20
2019-03-28T07:33:14.063Z,103614.02
2019-03-28T07:35:42.038Z,103601.20
2019-03-28T07:38:10.143Z,103601.20
2019-03-28T07:40:37.963Z,103613.18
2019-03-28T07:43:05.859Z,103606.19
2019-03-28T07:45:34.662Z,103610.93
2019-03-28T07:48:02.699Z,103615.53
2019-03-28T07:50:33.366Z,103617.92
2019-03-28T07:53:00.343Z,103614.90
2019-03-28T07:55:28.234Z,103613.63
2019-03-28T07:57:56.070Z,103622.01
2019-03-28T08:00:23.947Z,103631.80
2019-03-28T08:02:51.760Z,103631.80
2019-03-28T08:05:20.219Z,103616.36
2019-03-28T08:07:48.089Z,103633.06
2019-03-28T08:10:16.144Z,103635.22
2019-03-28T08:12:44.018Z,103636.89
2019-03-28T08:15:12.136Z,103625.59
2019-03-28T08:17:39.975Z,103629.05
2019-03-28T08:20:08.877Z,103624.34
2019-03-28T08:22:36.677Z,103633.28
2019-03-28T08:25:09.554Z,103633.57
2019-03-28T08:27:34.764Z,103636.67
2019-03-28T08:30:02.925Z,103632.41
2019-03-28T08:32:30.840Z,103632.08
2019-03-28T08:34:58.709Z,103640.09
2019-03-28T08:37:27.422Z,103630.48
2019-03-28T08:39:55.769Z,103631.34
2019-03-28T08:42:24.156Z,103626.22
2019-03-28T08:44:51.976Z,103628.39
2019-03-28T08:47:19.822Z,103628.17
2019-03-28T08:49:47.679Z,103635.13
2019-03-28T08:52:15.476Z,103628.97
2019-03-28T08:54:43.347Z,103628.70
2019-03-28T08:57:11.172Z,103631.81
2019-03-28T08:59:38.984Z,103634.45
2019-03-28T09:02:07.290Z,103625.50
2019-03-28T09:04:35.149Z,103636.27
2019-03-28T09:07:03.346Z,103633.81
2019-03-28T09:09:31.158Z,103635.78
2019-03-28T09:11:58.989Z,103638.44
2019-03-28T09:14:26.821Z,103643.95
2019-03-28T09:16:54.621Z,103644.23
2019-03-28T09:19:22.503Z,103641.11
2019-03-28T09:21:50.315Z,103654.08
2019-03-28T09:24:18.192Z,103646.81
2019-03-28T09:26:46.047Z,103651.88
2019-03-28T09:29:13.887Z,103651.08
2019-03-28T09:31:41.805Z,103652.19
2019-03-28T09:34:09.641Z,103648.06
2019-03-28T09:36:40.216Z,103651.66
2019-03-28T09:39:08.986Z,103659.78
2019-03-28T09:41:36.803Z,103660.49
2019-03-28T09:44:04.614Z,103672.36
2019-03-28T09:46:32.463Z,103672.48
2019-03-28T09:49:00.470Z,103674.57
2019-03-28T09:51:28.261Z,103673.93
2019-03-28T09:53:56.120Z,103672.60
2019-03-28T09:56:24.034Z,103668.66
2019-03-28T09:58:51.831Z,103666.84
2019-03-28T10:01:19.770Z,103666.05
2019-03-28T10:03:47.654Z,103674.11
2019-03-28T10:06:15.555Z,103681.61
2019-03-28T10:08:43.569Z,103685.23
2019-03-28T10:11:11.374Z,103689.45
2019-03-28T10:13:39.208Z,103697.04
2019-03-28T10:16:07.101Z,103691.70
2019-03-28T10:18:34.933Z,103696.38
2019-03-28T10:21:02.779Z,103698.52
2019-03-28T10:23:30.576Z,103700.02
2019-03-28T10:25:58.437Z,103692.88
2019-03-28T10:28:26.288Z,103686.48
2019-03-28T10:30:54.148Z,103688.91
2019-03-28T10:33:22.020Z,103692.42
2019-03-28T10:35:49.855Z,103693.24
2019-03-28T10:38:18.847Z,103689.12
2019-03-28T10:40:47.126Z,103683.77
2019-03-28T10:43:15.010Z,103681.47
2019-03-28T10:45:42.834Z,103686.94
2019-03-28T10:48:10.673Z,103682.67
2019-03-28T10:50:45.551Z,103675.98
2019-03-28T10:53:08.184Z,103683.92
2019-03-28T10:55:36.274Z,103682.68
2019-03-28T10:58:17.779Z,103676.58
2019-03-28T11:00:34.756Z,103681.77
2019-03-28T11:03:02.757Z,103688.61
2019-03-28T11:05:30.733Z,103685.23
2019-03-28T11:07:58.719Z,103683.61
2019-03-28T11:10:27.762Z,103677.52
2019-03-28T11:12:57.855Z,103678.64
2019-03-28T11:15:26.962Z,103681.47
2019-03-28T11:17:54.779Z,103681.47
2019-03-28T11:20:25.636Z,103682.98
2019-03-28T11:22:53.723Z,103674.95
2019-03-28T11:25:21.597Z,103674.66
2019-03-28T11:27:49.850Z,103677.70
2019-03-28T11:30:18.571Z,103673.35
2019-03-28T11:32:46.602Z,103675.17
2019-03-28T11:35:14.468Z,103680.96
2019-03-28T11:37:42.254Z,103683.19
2019-03-28T11:40:10.506Z,103677.41
2019-03-28T11:42:38.376Z,103673.34
2019-03-28T11:45:09.229Z,103669.97
2019-03-28T11:47:36.998Z,103675.97
2019-03-28T11:50:05.745Z,103675.87
2019-03-28T11:52:34.762Z,103671.09
2019-03-28T11:55:02.674Z,103671.31
2019-03-28T11:57:30.487Z,103676.39
2019-03-28T11:59:58.319Z,103665.52
2019-03-28T12:02:26.115Z,103666.83
2019-03-28T12:04:53.974Z,103663.17
2019-03-28T12:07:21.910Z,103665.28
2019-03-28T12:09:49.840Z,103663.47
2019-03-28T12:12:17.664Z,103667.12
2019-03-28T12:14:45.524Z,103658.78
2019-03-28T12:17:13.351Z,103653.39
2019-03-28T12:19:41.179Z,103652.57
2019-03-28T12:22:08.974Z,103647.61
2019-03-28T12:24:36.823Z,103652.80
2019-03-28T12:27:04.704Z,103654.73
2019-03-28T12:29:35.707Z,103648.12
2019-03-28T12:32:13.408Z,103655.01
2019-03-28T12:34:32.010Z,103651.14
2019-03-28T12:36:59.849Z,103654.02
2019-03-28T12:39:27.635Z,103649.13
2019-03-28T12:41:55.496Z,103650.84
2019-03-28T12:44:23.324Z,103646.27
2019-03-28T12:46:51.174Z,103645.75
2019-03-28T12:49:18.998Z,103639.44
2019-03-28T12:51:46.794Z,103645.06
2019-03-28T12:54:14.638Z,103641.70
2019-03-28T12:56:42.523Z,103641.48
2019-03-28T12:59:10.366Z,103647.30
2019-03-28T13:01:38.203Z,103643.44
2019-03-28T13:04:05.995Z,103637.20
2019-03-28T13:06:33.823Z,103634.03
2019-03-28T13:09:01.668Z,103631.39
2019-03-28T13:11:29.516Z,103632.94
2019-03-28T13:13:57.316Z,103630.89
2019-03-28T13:16:25.224Z,103631.42
2019-03-28T13:18:53.276Z,103631.61
2019-03-28T13:21:24.070Z,103631.77
2019-03-28T13:23:52.109Z,103630.93
2019-03-28T13:26:19.931Z,103628.28
2019-03-28T13:28:47.715Z,103630.97
2019-03-28T13:31:15.526Z,103619.73
2019-03-28T13:33:43.478Z,103614.27
2019-03-28T13:36:11.252Z,103610.05
2019-03-28T13:38:39.089Z,103608.12
2019-03-28T13:41:06.982Z,103608.25
2019-03-28T13:43:34.793Z,103602.22
2019-03-28T13:46:02.601Z,103609.08
2019-03-28T13:48:30.470Z,103609.44
2019-03-28T13:50:58.311Z,103611.91
2019-03-28T13:53:38.657Z,103611.50
2019-03-28T13:55:55.819Z,103605.17
2019-03-28T13:58:23.614Z,103611.67
2019-03-28T14:00:54.410Z,103603.55
2019-03-28T14:03:21.117Z,103603.21
2019-03-28T14:05:48.948Z,103600.56
2019-03-28T14:08:16.837Z,103599.08
2019-03-28T14:10:44.752Z,103595.05
2019-03-28T14:13:12.590Z,103596.43
2019-03-28T14:15:40.418Z,103597.02
2019-03-28T14:18:08.197Z,103593.12
2019-03-28T14:20:36.072Z,103591.25
2019-03-28T14:23:03.891Z,103585.44
2019-03-28T14:25:31.699Z,103579.07
2019-03-28T14:27:59.508Z,103572.66
2019-03-28T14:30:27.345Z,103570.96
2019-03-28T14:33:09.993Z,103564.25
2019-03-28T14:35:24.996Z,103566.76
2019-03-28T14:37:52.771Z,103565.85
2019-03-28T14:40:20.751Z,103566.34
2019-03-28T14:42:48.583Z,103565.50
2019-03-28T14:45:16.458Z,103566.41
2019-03-28T14:47:44.214Z,103565.42
2019-03-28T14:50:12.355Z,103565.57
2019-03-28T14:52:43.269Z,103573.23
2019-03-28T14:55:11.115Z,103574.24
2019-03-28T14:57:40.087Z,103570.54
2019-03-28T15:00:15.778Z,103570.81
2019-03-28T15:02:43.668Z,103575.70
2019-03-28T15:05:11.610Z,103568.39
2019-03-28T15:07:40.375Z,103566.09
2019-03-28T15:10:08.343Z,103573.07
2019-03-28T15:12:36.189Z,103568.19
2019-03-28T15:15:04.286Z,103563.66
2019-03-28T15:17:32.101Z,103559.92
2019-03-28T15:19:59.920Z,103567.12
2019-03-28T15:22:27.680Z,103566.54
2019-03-28T15:24:55.535Z,103557.03
2019-03-28T15:27:23.383Z,103556.95
2019-03-28T15:29:51.187Z,103558.53
2019-03-28T15:32:19.024Z,103557.17
2019-03-28T15:34:46.828Z,103549.39
2019-03-28T15:37:14.612Z,103550.44
2019-03-28T15:39:42.399Z,103552.48
2019-03-28T15:42:10.201Z,103548.48
2019-03-28T15:44:39.470Z,103542.89
2019-03-28T15:47:07.352Z,103541.88
2019-03-28T15:49:35.173Z,103540.77
2019-03-28T15:52:03.376Z,103544.59
2019-03-28T15:54:31.348Z,103536.22
2019-03-28T15:56:59.256Z,103537.27
2019-03-28T15:59:27.100Z,103537.71
2019-03-28T16:01:54.894Z,103535.40
2019-03-28T16:04:24.816Z,103538.74
2019-03-28T16:06:52.447Z,103535.77
2019-03-28T16:09:20.530Z,103533.86
2019-03-28T16:12:01.671Z,103542.47
2019-03-28T16:14:18.100Z,103538.00
2019-03-28T16:16:45.889Z,103539.01
2019-03-28T16:19:13.656Z,103535.35
2019-03-28T16:21:41.476Z,103533.88
2019-03-28T16:24:09.251Z,103536.20
2019-03-28T16:26:37.040Z,103534.55
2019-03-28T16:29:04.885Z,103540.45
2019-03-28T16:31:32.693Z,103538.53
2019-03-28T16:34:06.922Z,103541.19
2019-03-28T16:36:30.197Z,103530.47
2019-03-28T16:38:57.963Z,103531.79
2019-03-28T16:41:25.758Z,103530.36
2019-03-28T16:43:53.548Z,103531.10
2019-03-28T16:46:21.366Z,103530.91
2019-03-28T16:48:49.176Z,103528.53
2019-03-28T16:51:17.662Z,103522.69
2019-03-28T16:53:45.504Z,103522.59
2019-03-28T16:56:13.303Z,103521.20
2019-03-28T16:58:43.769Z,103521.05
2019-03-28T17:01:11.741Z,103522.20
2019-03-28T17:03:39.553Z,103524.12
2019-03-28T17:06:08.036Z,103520.95
2019-03-28T17:08:38.727Z,103524.12
2019-03-28T17:11:06.553Z,103527.25
2019-03-28T17:13:34.323Z,103525.61
2019-03-28T17:16:02.065Z,103527.74
2019-03-28T17:18:31.264Z,103528.69
2019-03-28T17:20:59.531Z,103527.84
2019-03-28T17:23:28.336Z,103530.81
2019-03-28T17:25:56.143Z,103530.81
2019-03-28T17:28:23.944Z,103530.50
2019-03-28T17:30:51.825Z,103531.41
2019-03-28T17:33:20.898Z,103526.62
2019-03-28T17:35:49.016Z,103531.50
2019-03-28T17:38:16.853Z,103526.62
2019-03-28T17:40:44.686Z,103535.48
2019-03-28T17:43:12.591Z,103523.03
2019-03-28T17:45:40.523Z,103526.20
2019-03-28T17:48:08.531Z,103530.01
2019-03-28T17:50:36.299Z,103525.52
2019-03-28T17:53:04.225Z,103525.83
2019-03-28T17:55:32.385Z,103529.42
2019-03-28T17:58:00.227Z,103536.44
2019-03-28T18:00:28.359Z,103535.04
2019-03-28T18:03:08.390Z,103528.83
2019-03-28T18:05:26.085Z,103532.45
2019-03-28T18:07:53.984Z,103531.13
2019-03-28T18:10:21.955Z,103530.84
2019-03-28T18:12:49.762Z,103531.97
2019-03-28T18:15:17.601Z,103526.70
2019-03-28T18:17:45.414Z,103527.81
2019-03-28T18:20:13.685Z,103524.92
2019-03-28T18:22:41.577Z,103531.72
2019-03-28T18:25:10.001Z,103530.01
2019-03-28T18:27:37.777Z,103538.03
2019-03-28T18:30:06.174Z,103533.46
2019-03-28T18:32:33.967Z,103536.53
2019-03-28T18:35:05.545Z,103539.28
2019-03-28T18:37:31.441Z,103535.69
2019-03-28T18:39:59.271Z,103533.88
2019-03-28T18:42:27.081Z,103532.66
2019-03-28T18:44:54.872Z,103531.34
2019-03-28T18:47:22.651Z,103534.05
2019-03-28T18:49:50.613Z,103535.30
2019-03-28T18:52:18.557Z,103532.24
2019-03-28T18:54:46.397Z,103540.61
2019-03-28T18:57:14.187Z,103541.41
2019-03-28T18:59:41.966Z,103548.86
2019-03-28T19:02:09.765Z,103550.92
2019-03-28T19:04:37.584Z,103555.09
2019-03-28T19:07:05.441Z,103556.77
2019-03-28T19:09:33.239Z,103565.44
2019-03-28T19:12:01.061Z,103560.95
2019-03-28T19:14:28.866Z,103560.42
2019-03-28T19:16:56.669Z,103565.84
2019-03-28T19:19:38.375Z,103562.49
2019-03-28T19:21:55.934Z,103563.53
2019-03-28T19:24:24.191Z,103563.17
2019-03-28T19:26:52.846Z,103567.58
2019-03-28T19:29:20.729Z,103572.27
2019-03-28T19:31:48.594Z,103572.87
2019-03-28T19:34:16.366Z,103568.59
2019-03-28T19:36:45.250Z,103570.92
2019-03-28T19:39:16.626Z,103566.36
2019-03-28T19:41:44.544Z,103571.78
2019-03-28T19:44:12.475Z,103569.52
2019-03-28T19:46:41.802Z,103571.44
2019-03-28T19:49:09.745Z,103569.31
2019-03-28T19:51:37.570Z,103572.87
2019-03-28T19:54:05.359Z,103571.13
2019-03-28T19:56:35.961Z,103569.80
2019-03-28T19:59:04.288Z,103564.09
2019-03-28T20:01:32.070Z,103570.33
2019-03-28T20:03:59.914Z,103567.16
2019-03-28T20:06:27.681Z,103561.37
2019-03-28T20:08:55.554Z,103567.98
2019-03-28T20:11:23.518Z,103564.44
2019-03-28T20:13:51.381Z,103561.68
2019-03-28T20:16:19.237Z,103560.77
2019-03-28T20:18:47.036Z,103564.63
2019-03-28T20:21:14.844Z,103569.14
2019-03-28T20:23:42.678Z,103562.16
2019-03-28T20:26:10.452Z,103567.52
2019-03-28T20:28:38.240Z,103565.71
2019-03-28T20:31:06.030Z,103568.36
2019-03-28T20:33:33.813Z,103574.97
2019-03-28T20:36:19.914Z,103577.52
2019-03-28T20:38:31.430Z,103583.98
2019-03-28T20:40:59.212Z,103584.97
2019-03-28T20:43:27.087Z,103586.41
2019-03-28T20:45:54.980Z,103589.55
2019-03-28T20:48:22.771Z,103598.61
2019-03-28T20:50:50.526Z,103596.05
2019-03-28T20:53:18.416Z,103595.66
2019-03-28T20:55:49.187Z,103596.57
2019-03-28T20:58:16.962Z,103600.95
2019-03-28T21:00:46.225Z,103603.19
2019-03-28T21:03:15.353Z,103598.69
2019-03-28T21:05:43.679Z,103600.95
2019-03-28T21:08:11.773Z,103599.11
2019-03-28T21:10:39.608Z,103602.47
2019-03-28T21:13:07.436Z,103601.98
2019-03-28T21:15:35.231Z,103599.75
2019-03-28T21:18:03.008Z,103597.10
2019-03-28T21:20:30.807Z,103598.81
2019-03-28T21:22:58.616Z,103599.14
2019-03-28T21:25:29.462Z,103591.59
2019-03-28T21:27:56.154Z,103590.60
2019-03-28T21:30:26.954Z,103587.95
2019-03-28T21:32:55.625Z,103591.92
2019-03-28T21:35:23.352Z,103591.81
2019-03-28T21:37:51.212Z,103597.11
2019-03-28T21:40:19.009Z,103592.12
2019-03-28T21:42:46.865Z,103588.87
2019-03-28T21:45:15.098Z,103588.68
2019-03-28T21:47:43.018Z,103590.42
2019-03-28T21:50:10.847Z,103589.89
2019-03-28T21:52:38.676Z,103584.11
2019-03-28T21:55:07.829Z,103584.41
2019-03-28T21:57:35.643Z,103584.33
2019-03-28T22:00:06.135Z,103583.91
2019-03-28T22:02:35.895Z,103585.23
2019-03-28T22:05:04.020Z,103581.69
2019-03-28T22:07:31.870Z,103565.59
2019-03-28T22:09:59.727Z,103571.71
2019-03-28T22:12:27.501Z,103569.86
2019-03-28T22:14:55.287Z,103569.78
2019-03-28T22:17:23.095Z,103564.80
2019-03-28T22:19:51.661Z,103569.18
2019-03-28T22:22:19.747Z,103564.69
2019-03-28T22:24:47.576Z,103562.45
2019-03-28T22:27:15.411Z,103558.79
2019-03-28T22:29:43.255Z,103551.19
2019-03-28T22:32:11.895Z,103550.48
2019-03-28T22:34:42.648Z,103544.70
2019-03-28T22:37:10.514Z,103546.81
2019-03-28T22:39:38.987Z,103548.13
2019-03-28T22:42:07.097Z,103547.23
2019-03-28T22:44:34.959Z,103547.11
2019-03-28T22:47:02.763Z,103544.39
2019-03-28T22:49:31.271Z,103545.59
2019-03-28T22:51:59.719Z,103538.99
2019-03-28T22:54:27.571Z,103540.23
2019-03-28T22:56:55.406Z,103531.36
2019-03-28T22:59:23.206Z,103530.87
2019-03-28T23:01:51.027Z,103535.05
2019-03-28T23:04:18.800Z,103532.11
2019-03-28T23:06:46.583Z,103527.61
2019-03-28T23:09:14.379Z,103529.77
2019-03-28T23:11:42.523Z,103523.05
2019-03-28T23:14:10.624Z,103517.86
2019-03-28T23:16:38.448Z,103521.41
2019-03-28T23:19:06.250Z,103513.41
2019-03-28T23:21:34.071Z,103516.84
2019-03-28T23:24:01.936Z,103521.75
2019-03-28T23:26:29.674Z,103508.12
2019-03-28T23:28:57.499Z,103512.50
2019-03-28T23:31:25.304Z,103513.29
2019-03-28T23:33:53.092Z,103506.95
2019-03-28T23:36:20.898Z,103503.70
2019-03-28T23:38:48.688Z,103505.84
2019-03-28T23:41:16.555Z,103502.60
2019-03-28T23:43:44.391Z,103499.96
2019-03-28T23:46:12.183Z,103491.92
2019-03-28T23:48:40.168Z,103494.18
2019-03-28T23:51:07.977Z,103490.70
2019-03-28T23:53:35.790Z,103486.25
2019-03-28T23:56:03.633Z,103487.57
2019-03-28T23:58:31.414Z,103487.45
